sensor_id;sensor_type;location;lat;lon;timestamp;temperature;humidity
52267;DHT22;38223;50.940;4.034;2023-03-03T00:00:48;5.10;99.90
52267;DHT22;38223;50.940;4.034;2023-03-03T00:03:18;5.10;99.90
52267;DHT22;38223;50.940;4.034;2023-03-03T00:05:53;5.00;99.90
52267;DHT22;38223;50.940;4.034;2023-03-03T00:08:24;5.10;99.90
52267;DHT22;38223;50.940;4.034;2023-03-03T00:10:52;5.10;99.90
52267;DHT22;38223;50.940;4.034;2023-03-03T00:13:23;5.00;99.90
52267;DHT22;38223;50.940;4.034;2023-03-03T00:16:43;4.90;99.90
52267;DHT22;38223;50.940;4.034;2023-03-03T00:18:35;4.90;99.90
52267;DHT22;38223;50.940;4.034;2023-03-03T00:24:19;4.90;99.90
52267;DHT22;38223;50.940;4.034;2023-03-03T00:26:35;4.90;99.90
52267;DHT22;38223;50.940;4.034;2023-03-03T00:31:54;4.80;99.90
52267;DHT22;38223;50.940;4.034;2023-03-03T00:34:27;4.60;99.90
52267;DHT22;38223;50.940;4.034;2023-03-03T00:36:57;4.50;99.90
52267;DHT22;38223;50.940;4.034;2023-03-03T00:39:35;4.70;99.90
52267;DHT22;38223;50.940;4.034;2023-03-03T00:42:15;4.70;99.90
52267;DHT22;38223;50.940;4.034;2023-03-03T00:44:56;4.70;99.90
52267;DHT22;38223;50.940;4.034;2023-03-03T00:47:45;4.70;99.90
52267;DHT22;38223;50.940;4.034;2023-03-03T00:52:45;4.50;99.90
52267;DHT22;38223;50.940;4.034;2023-03-03T00:55:11;4.30;99.90
52267;DHT22;38223;50.940;4.034;2023-03-03T00:57:40;4.50;99.90
52267;DHT22;38223;50.940;4.034;2023-03-03T01:00:13;4.50;99.90
52267;DHT22;38223;50.940;4.034;2023-03-03T01:02:42;4.50;99.90
52267;DHT22;38223;50.940;4.034;2023-03-03T01:05:18;4.40;99.90
52267;DHT22;38223;50.940;4.034;2023-03-03T01:07:49;4.30;99.90
52267;DHT22;38223;50.940;4.034;2023-03-03T01:10:22;4.30;99.90
52267;DHT22;38223;50.940;4.034;2023-03-03T01:12:53;4.30;99.90
52267;DHT22;38223;50.940;4.034;2023-03-03T01:15:23;4.30;99.90
52267;DHT22;38223;50.940;4.034;2023-03-03T01:17:56;4.30;99.90
52267;DHT22;38223;50.940;4.034;2023-03-03T01:20:28;4.30;99.90
52267;DHT22;38223;50.940;4.034;2023-03-03T01:25:46;4.40;99.90
52267;DHT22;38223;50.940;4.034;2023-03-03T01:28:14;4.40;99.90
52267;DHT22;38223;50.940;4.034;2023-03-03T01:30:41;4.40;99.90
52267;DHT22;38223;50.940;4.034;2023-03-03T01:33:09;4.40;99.90
52267;DHT22;38223;50.940;4.034;2023-03-03T01:35:47;4.30;99.90
52267;DHT22;38223;50.940;4.034;2023-03-03T01:38:17;4.20;99.90
52267;DHT22;38223;50.940;4.034;2023-03-03T01:40:52;4.20;99.90
52267;DHT22;38223;50.940;4.034;2023-03-03T01:43:25;4.20;99.90
52267;DHT22;38223;50.940;4.034;2023-03-03T01:51:50;4.20;99.90
52267;DHT22;38223;50.940;4.034;2023-03-03T01:53:47;4.10;99.90
52267;DHT22;38223;50.940;4.034;2023-03-03T01:56:17;4.00;99.90
52267;DHT22;38223;50.940;4.034;2023-03-03T01:58:51;3.90;99.90
52267;DHT22;38223;50.940;4.034;2023-03-03T02:01:24;3.90;99.90
52267;DHT22;38223;50.940;4.034;2023-03-03T02:03:58;4.00;99.90
52267;DHT22;38223;50.940;4.034;2023-03-03T02:06:31;3.90;99.90
52267;DHT22;38223;50.940;4.034;2023-03-03T02:12:01;4.00;99.90
52267;DHT22;38223;50.940;4.034;2023-03-03T02:14:30;4.00;99.90
52267;DHT22;38223;50.940;4.034;2023-03-03T02:16:58;4.00;99.90
52267;DHT22;38223;50.940;4.034;2023-03-03T02:19:53;4.00;99.90
52267;DHT22;38223;50.940;4.034;2023-03-03T02:24:52;4.10;99.90
52267;DHT22;38223;50.940;4.034;2023-03-03T02:27:20;4.20;99.90
52267;DHT22;38223;50.940;4.034;2023-03-03T02:29:47;4.10;99.90
52267;DHT22;38223;50.940;4.034;2023-03-03T02:32:15;4.00;99.90
52267;DHT22;38223;50.940;4.034;2023-03-03T02:34:50;4.30;99.90
52267;DHT22;38223;50.940;4.034;2023-03-03T02:37:22;4.40;99.90
52267;DHT22;38223;50.940;4.034;2023-03-03T02:39:53;4.30;99.90
52267;DHT22;38223;50.940;4.034;2023-03-03T02:42:26;4.10;99.90
52267;DHT22;38223;50.940;4.034;2023-03-03T02:44:56;4.00;99.90
52267;DHT22;38223;50.940;4.034;2023-03-03T02:47:23;4.00;99.90
52267;DHT22;38223;50.940;4.034;2023-03-03T02:49:51;3.90;99.90
52267;DHT22;38223;50.940;4.034;2023-03-03T02:52:18;3.90;99.90
52267;DHT22;38223;50.940;4.034;2023-03-03T02:54:46;3.90;99.90
52267;DHT22;38223;50.940;4.034;2023-03-03T02:57:14;3.80;99.90
52267;DHT22;38223;50.940;4.034;2023-03-03T02:59:41;3.80;99.90
52267;DHT22;38223;50.940;4.034;2023-03-03T03:02:09;3.80;99.90
52267;DHT22;38223;50.940;4.034;2023-03-03T03:04:37;3.70;99.90
52267;DHT22;38223;50.940;4.034;2023-03-03T03:07:08;3.60;99.90
52267;DHT22;38223;50.940;4.034;2023-03-03T03:09:41;3.70;99.90
52267;DHT22;38223;50.940;4.034;2023-03-03T03:12:12;3.60;99.90
52267;DHT22;38223;50.940;4.034;2023-03-03T03:14:42;3.70;99.90
52267;DHT22;38223;50.940;4.034;2023-03-03T03:17:12;3.70;99.90
52267;DHT22;38223;50.940;4.034;2023-03-03T03:19:41;3.60;99.90
52267;DHT22;38223;50.940;4.034;2023-03-03T03:22:12;3.60;99.90
52267;DHT22;38223;50.940;4.034;2023-03-03T03:24:42;3.60;99.90
52267;DHT22;38223;50.940;4.034;2023-03-03T03:27:15;3.80;99.90
52267;DHT22;38223;50.940;4.034;2023-03-03T03:29:50;3.70;99.90
52267;DHT22;38223;50.940;4.034;2023-03-03T03:32:21;3.60;99.90
52267;DHT22;38223;50.940;4.034;2023-03-03T03:34:49;3.60;99.90
52267;DHT22;38223;50.940;4.034;2023-03-03T03:37:21;3.70;99.90
52267;DHT22;38223;50.940;4.034;2023-03-03T03:39:51;3.60;99.90
52267;DHT22;38223;50.940;4.034;2023-03-03T03:42:19;3.60;99.90
52267;DHT22;38223;50.940;4.034;2023-03-03T03:44:47;3.70;99.90
52267;DHT22;38223;50.940;4.034;2023-03-03T03:47:19;3.70;99.90
52267;DHT22;38223;50.940;4.034;2023-03-03T03:49:48;3.70;99.90
52267;DHT22;38223;50.940;4.034;2023-03-03T03:52:17;3.40;99.90
52267;DHT22;38223;50.940;4.034;2023-03-03T03:54:44;3.50;99.90
52267;DHT22;38223;50.940;4.034;2023-03-03T03:57:12;3.50;99.90
52267;DHT22;38223;50.940;4.034;2023-03-03T03:59:40;3.60;99.90
52267;DHT22;38223;50.940;4.034;2023-03-03T04:02:07;3.50;99.90
52267;DHT22;38223;50.940;4.034;2023-03-03T04:04:36;3.60;99.90
52267;DHT22;38223;50.940;4.034;2023-03-03T04:07:09;3.40;99.90
52267;DHT22;38223;50.940;4.034;2023-03-03T04:09:36;3.40;99.90
52267;DHT22;38223;50.940;4.034;2023-03-03T04:12:06;3.30;99.90
52267;DHT22;38223;50.940;4.034;2023-03-03T04:14:37;3.30;99.90
52267;DHT22;38223;50.940;4.034;2023-03-03T04:17:04;3.30;99.90
52267;DHT22;38223;50.940;4.034;2023-03-03T04:19:35;3.30;99.90
52267;DHT22;38223;50.940;4.034;2023-03-03T04:22:07;3.30;99.90
52267;DHT22;38223;50.940;4.034;2023-03-03T04:24:40;3.40;99.90
52267;DHT22;38223;50.940;4.034;2023-03-03T04:27:10;3.50;99.90
52267;DHT22;38223;50.940;4.034;2023-03-03T04:29:38;3.40;99.90
52267;DHT22;38223;50.940;4.034;2023-03-03T04:32:06;3.40;99.90
52267;DHT22;38223;50.940;4.034;2023-03-03T04:34:34;3.40;99.90
52267;DHT22;38223;50.940;4.034;2023-03-03T04:37:02;3.40;99.90
52267;DHT22;38223;50.940;4.034;2023-03-03T04:39:33;3.40;99.90
52267;DHT22;38223;50.940;4.034;2023-03-03T04:42:05;3.40;99.90
52267;DHT22;38223;50.940;4.034;2023-03-03T04:44:39;3.40;99.90
52267;DHT22;38223;50.940;4.034;2023-03-03T04:47:06;3.50;99.90
52267;DHT22;38223;50.940;4.034;2023-03-03T04:49:34;3.50;99.90
52267;DHT22;38223;50.940;4.034;2023-03-03T04:52:01;3.30;99.90
52267;DHT22;38223;50.940;4.034;2023-03-03T04:54:32;3.40;99.90
52267;DHT22;38223;50.940;4.034;2023-03-03T04:57:01;3.40;99.90
52267;DHT22;38223;50.940;4.034;2023-03-03T04:59:29;3.40;99.90
52267;DHT22;38223;50.940;4.034;2023-03-03T05:01:58;3.50;99.90
52267;DHT22;38223;50.940;4.034;2023-03-03T05:04:31;3.40;99.90
52267;DHT22;38223;50.940;4.034;2023-03-03T05:07:06;3.20;99.90
52267;DHT22;38223;50.940;4.034;2023-03-03T05:09:37;3.30;99.90
52267;DHT22;38223;50.940;4.034;2023-03-03T05:12:05;3.20;99.90
52267;DHT22;38223;50.940;4.034;2023-03-03T05:14:34;3.20;99.90
52267;DHT22;38223;50.940;4.034;2023-03-03T05:17:05;3.30;99.90
52267;DHT22;38223;50.940;4.034;2023-03-03T05:19:37;3.30;99.90
52267;DHT22;38223;50.940;4.034;2023-03-03T05:22:10;3.10;99.90
52267;DHT22;38223;50.940;4.034;2023-03-03T05:24:42;2.90;99.90
52267;DHT22;38223;50.940;4.034;2023-03-03T05:27:12;2.90;99.90
52267;DHT22;38223;50.940;4.034;2023-03-03T05:29:46;3.00;99.90
52267;DHT22;38223;50.940;4.034;2023-03-03T05:32:21;3.10;99.90
52267;DHT22;38223;50.940;4.034;2023-03-03T05:34:49;2.90;99.90
52267;DHT22;38223;50.940;4.034;2023-03-03T05:37:22;2.90;99.90
52267;DHT22;38223;50.940;4.034;2023-03-03T05:39:51;2.90;99.90
52267;DHT22;38223;50.940;4.034;2023-03-03T05:42:26;2.90;99.90
52267;DHT22;38223;50.940;4.034;2023-03-03T05:44:59;2.70;99.90
52267;DHT22;38223;50.940;4.034;2023-03-03T05:47:31;2.50;99.90
52267;DHT22;38223;50.940;4.034;2023-03-03T05:50:02;2.40;99.90
52267;DHT22;38223;50.940;4.034;2023-03-03T05:52:33;2.40;99.90
52267;DHT22;38223;50.940;4.034;2023-03-03T05:55:04;2.40;99.90
52267;DHT22;38223;50.940;4.034;2023-03-03T05:57:33;2.20;99.90
52267;DHT22;38223;50.940;4.034;2023-03-03T06:00:09;2.20;99.90
52267;DHT22;38223;50.940;4.034;2023-03-03T06:02:42;2.10;99.90
52267;DHT22;38223;50.940;4.034;2023-03-03T06:05:14;2.10;99.90
52267;DHT22;38223;50.940;4.034;2023-03-03T06:07:42;2.30;99.90
52267;DHT22;38223;50.940;4.034;2023-03-03T06:10:14;2.30;99.90
52267;DHT22;38223;50.940;4.034;2023-03-03T06:12:48;2.30;99.90
52267;DHT22;38223;50.940;4.034;2023-03-03T06:15:19;2.30;99.90
52267;DHT22;38223;50.940;4.034;2023-03-03T06:17:48;2.20;99.90
52267;DHT22;38223;50.940;4.034;2023-03-03T06:20:22;2.00;99.90
52267;DHT22;38223;50.940;4.034;2023-03-03T06:22:55;1.90;99.90
52267;DHT22;38223;50.940;4.034;2023-03-03T06:25:27;1.90;99.90
52267;DHT22;38223;50.940;4.034;2023-03-03T06:28:00;1.90;99.90
52267;DHT22;38223;50.940;4.034;2023-03-03T06:30:31;2.00;99.90
52267;DHT22;38223;50.940;4.034;2023-03-03T06:33:04;1.90;99.90
52267;DHT22;38223;50.940;4.034;2023-03-03T06:35:40;2.00;99.90
52267;DHT22;38223;50.940;4.034;2023-03-03T06:38:08;2.00;99.90
52267;DHT22;38223;50.940;4.034;2023-03-03T06:40:42;2.00;99.90
52267;DHT22;38223;50.940;4.034;2023-03-03T06:43:30;2.10;99.90
52267;DHT22;38223;50.940;4.034;2023-03-03T06:45:58;2.30;99.90
52267;DHT22;38223;50.940;4.034;2023-03-03T06:48:28;2.30;99.90
52267;DHT22;38223;50.940;4.034;2023-03-03T06:51:02;2.30;99.90
52267;DHT22;38223;50.940;4.034;2023-03-03T06:53:32;2.40;99.90
52267;DHT22;38223;50.940;4.034;2023-03-03T06:56:06;2.40;99.90
52267;DHT22;38223;50.940;4.034;2023-03-03T06:58:36;2.40;99.90
52267;DHT22;38223;50.940;4.034;2023-03-03T07:01:12;2.20;99.90
52267;DHT22;38223;50.940;4.034;2023-03-03T07:03:40;2.20;99.90
52267;DHT22;38223;50.940;4.034;2023-03-03T07:06:26;2.20;99.90
52267;DHT22;38223;50.940;4.034;2023-03-03T07:08:57;2.30;99.90
52267;DHT22;38223;50.940;4.034;2023-03-03T07:11:29;2.30;99.90
52267;DHT22;38223;50.940;4.034;2023-03-03T07:14:00;2.50;99.90
52267;DHT22;38223;50.940;4.034;2023-03-03T07:16:34;2.60;99.90
52267;DHT22;38223;50.940;4.034;2023-03-03T07:19:03;2.50;99.90
52267;DHT22;38223;50.940;4.034;2023-03-03T07:21:36;2.60;99.90
52267;DHT22;38223;50.940;4.034;2023-03-03T07:26:47;2.80;99.90
52267;DHT22;38223;50.940;4.034;2023-03-03T07:29:36;3.00;99.90
52267;DHT22;38223;50.940;4.034;2023-03-03T07:32:18;3.10;99.90
52267;DHT22;38223;50.940;4.034;2023-03-03T07:34:45;2.90;99.90
52267;DHT22;38223;50.940;4.034;2023-03-03T07:37:27;2.80;99.90
52267;DHT22;38223;50.940;4.034;2023-03-03T07:39:56;2.80;99.90
52267;DHT22;38223;50.940;4.034;2023-03-03T07:42:42;2.70;99.90
52267;DHT22;38223;50.940;4.034;2023-03-03T07:45:29;2.60;99.90
52267;DHT22;38223;50.940;4.034;2023-03-03T07:48:04;2.60;99.90
52267;DHT22;38223;50.940;4.034;2023-03-03T07:50:32;2.60;99.90
52267;DHT22;38223;50.940;4.034;2023-03-03T07:53:10;2.70;99.90
52267;DHT22;38223;50.940;4.034;2023-03-03T07:55:38;2.70;99.90
52267;DHT22;38223;50.940;4.034;2023-03-03T07:58:22;2.80;99.90
52267;DHT22;38223;50.940;4.034;2023-03-03T08:03:53;2.80;99.90
52267;DHT22;38223;50.940;4.034;2023-03-03T08:12:17;2.90;99.90
52267;DHT22;38223;50.940;4.034;2023-03-03T08:14:41;3.00;99.90
52267;DHT22;38223;50.940;4.034;2023-03-03T08:17:16;3.10;99.90
52267;DHT22;38223;50.940;4.034;2023-03-03T08:19:43;3.20;99.90
52267;DHT22;38223;50.940;4.034;2023-03-03T08:22:46;3.20;99.90
52267;DHT22;38223;50.940;4.034;2023-03-03T08:24:50;3.20;99.90
52267;DHT22;38223;50.940;4.034;2023-03-03T08:27:21;3.10;99.90
52267;DHT22;38223;50.940;4.034;2023-03-03T08:29:50;3.10;99.90
52267;DHT22;38223;50.940;4.034;2023-03-03T08:32:21;3.10;99.90
52267;DHT22;38223;50.940;4.034;2023-03-03T08:34:54;3.10;99.90
52267;DHT22;38223;50.940;4.034;2023-03-03T08:37:27;3.00;99.90
52267;DHT22;38223;50.940;4.034;2023-03-03T08:39:55;3.00;99.90
52267;DHT22;38223;50.940;4.034;2023-03-03T08:42:25;3.10;99.90
52267;DHT22;38223;50.940;4.034;2023-03-03T08:44:58;3.10;99.90
52267;DHT22;38223;50.940;4.034;2023-03-03T08:47:31;3.10;99.90
52267;DHT22;38223;50.940;4.034;2023-03-03T08:50:01;3.20;99.90
52267;DHT22;38223;50.940;4.034;2023-03-03T08:52:30;3.10;99.90
52267;DHT22;38223;50.940;4.034;2023-03-03T08:55:03;3.20;99.90
52267;DHT22;38223;50.940;4.034;2023-03-03T08:57:33;3.30;99.90
52267;DHT22;38223;50.940;4.034;2023-03-03T09:00:10;3.30;99.90
52267;DHT22;38223;50.940;4.034;2023-03-03T09:02:41;3.20;99.90
52267;DHT22;38223;50.940;4.034;2023-03-03T09:05:16;3.30;99.90
52267;DHT22;38223;50.940;4.034;2023-03-03T09:07:48;3.30;99.90
52267;DHT22;38223;50.940;4.034;2023-03-03T09:10:21;3.40;99.90
52267;DHT22;38223;50.940;4.034;2023-03-03T09:12:52;3.40;99.90
52267;DHT22;38223;50.940;4.034;2023-03-03T09:15:28;3.30;99.90
52267;DHT22;38223;50.940;4.034;2023-03-03T09:18:22;3.30;99.90
52267;DHT22;38223;50.940;4.034;2023-03-03T09:20:51;3.40;99.90
52267;DHT22;38223;50.940;4.034;2023-03-03T09:23:42;3.40;99.90
52267;DHT22;38223;50.940;4.034;2023-03-03T09:31:47;3.40;99.90
52267;DHT22;38223;50.940;4.034;2023-03-03T09:36:55;3.40;99.90
52267;DHT22;38223;50.940;4.034;2023-03-03T09:39:30;3.40;99.90
52267;DHT22;38223;50.940;4.034;2023-03-03T09:42:20;3.50;99.90
52267;DHT22;38223;50.940;4.034;2023-03-03T09:56:12;3.70;99.90
52267;DHT22;38223;50.940;4.034;2023-03-03T09:59:20;3.80;99.90
52267;DHT22;38223;50.940;4.034;2023-03-03T10:02:01;3.70;99.90
52267;DHT22;38223;50.940;4.034;2023-03-03T10:04:49;3.70;99.90
52267;DHT22;38223;50.940;4.034;2023-03-03T10:07:32;3.80;99.90
52267;DHT22;38223;50.940;4.034;2023-03-03T10:12:51;3.90;99.90
52267;DHT22;38223;50.940;4.034;2023-03-03T10:18:24;3.90;99.90
52267;DHT22;38223;50.940;4.034;2023-03-03T10:24:35;4.10;99.90
52267;DHT22;38223;50.940;4.034;2023-03-03T10:29:30;4.60;99.90
52267;DHT22;38223;50.940;4.034;2023-03-03T10:34:52;4.30;99.90
52267;DHT22;38223;50.940;4.034;2023-03-03T10:37:32;4.10;99.90
52267;DHT22;38223;50.940;4.034;2023-03-03T10:40:25;3.90;99.90
52267;DHT22;38223;50.940;4.034;2023-03-03T10:46:18;4.00;99.90
52267;DHT22;38223;50.940;4.034;2023-03-03T10:51:55;4.30;99.90
52267;DHT22;38223;50.940;4.034;2023-03-03T11:03:12;5.00;99.90
52267;DHT22;38223;50.940;4.034;2023-03-03T11:05:41;5.10;99.90
52267;DHT22;38223;50.940;4.034;2023-03-03T11:17:18;5.40;99.90
52267;DHT22;38223;50.940;4.034;2023-03-03T11:20:08;5.40;99.90
52267;DHT22;38223;50.940;4.034;2023-03-03T11:22:45;5.40;99.90
52267;DHT22;38223;50.940;4.034;2023-03-03T11:25:45;5.50;99.90
52267;DHT22;38223;50.940;4.034;2023-03-03T11:28:30;5.60;99.90
52267;DHT22;38223;50.940;4.034;2023-03-03T11:39:56;5.50;99.90
52267;DHT22;38223;50.940;4.034;2023-03-03T11:45:21;5.60;99.90
52267;DHT22;38223;50.940;4.034;2023-03-03T11:48:20;5.50;99.90
52267;DHT22;38223;50.940;4.034;2023-03-03T11:53:25;5.70;99.90
52267;DHT22;38223;50.940;4.034;2023-03-03T11:56:03;5.70;99.90
52267;DHT22;38223;50.940;4.034;2023-03-03T11:58:35;5.70;99.90
52267;DHT22;38223;50.940;4.034;2023-03-03T12:01:38;5.70;99.90
52267;DHT22;38223;50.940;4.034;2023-03-03T12:04:25;5.70;99.90
52267;DHT22;38223;50.940;4.034;2023-03-03T12:10:12;5.70;99.90
52267;DHT22;38223;50.940;4.034;2023-03-03T12:15:39;5.80;99.90
52267;DHT22;38223;50.940;4.034;2023-03-03T12:18:20;5.80;99.90
52267;DHT22;38223;50.940;4.034;2023-03-03T12:20:48;5.80;99.90
52267;DHT22;38223;50.940;4.034;2023-03-03T12:23:33;6.00;99.90
52267;DHT22;38223;50.940;4.034;2023-03-03T12:26:13;6.10;99.90
52267;DHT22;38223;50.940;4.034;2023-03-03T12:28:42;6.20;99.90
52267;DHT22;38223;50.940;4.034;2023-03-03T12:40:26;6.00;99.90
52267;DHT22;38223;50.940;4.034;2023-03-03T12:48:46;5.80;99.90
52267;DHT22;38223;50.940;4.034;2023-03-03T12:51:30;5.90;99.90
52267;DHT22;38223;50.940;4.034;2023-03-03T12:57:30;5.90;99.90
52267;DHT22;38223;50.940;4.034;2023-03-03T13:01:08;5.90;99.90
52267;DHT22;38223;50.940;4.034;2023-03-03T13:03:36;5.90;99.90
52267;DHT22;38223;50.940;4.034;2023-03-03T13:08:36;6.10;99.90
52267;DHT22;38223;50.940;4.034;2023-03-03T13:14:16;6.20;99.90
52267;DHT22;38223;50.940;4.034;2023-03-03T13:16:53;6.30;99.90
52267;DHT22;38223;50.940;4.034;2023-03-03T13:19:20;6.20;99.90
52267;DHT22;38223;50.940;4.034;2023-03-03T13:22:11;6.10;99.90
52267;DHT22;38223;50.940;4.034;2023-03-03T13:25:00;6.10;99.90
52267;DHT22;38223;50.940;4.034;2023-03-03T13:27:37;6.20;99.90
52267;DHT22;38223;50.940;4.034;2023-03-03T13:30:22;6.30;99.90
52267;DHT22;38223;50.940;4.034;2023-03-03T13:33:51;6.50;99.90
52267;DHT22;38223;50.940;4.034;2023-03-03T13:36:12;6.60;99.90
52267;DHT22;38223;50.940;4.034;2023-03-03T13:38:48;6.60;99.90
52267;DHT22;38223;50.940;4.034;2023-03-03T13:41:47;6.70;99.90
52267;DHT22;38223;50.940;4.034;2023-03-03T13:44:36;6.80;99.90
52267;DHT22;38223;50.940;4.034;2023-03-03T13:47:09;6.80;99.90
52267;DHT22;38223;50.940;4.034;2023-03-03T13:49:54;6.80;99.90
52267;DHT22;38223;50.940;4.034;2023-03-03T13:52:29;6.90;99.90
52267;DHT22;38223;50.940;4.034;2023-03-03T13:55:36;6.90;99.90
52267;DHT22;38223;50.940;4.034;2023-03-03T14:04:40;7.30;99.90
52267;DHT22;38223;50.940;4.034;2023-03-03T14:07:26;7.40;99.90
52267;DHT22;38223;50.940;4.034;2023-03-03T14:10:01;7.40;99.90
52267;DHT22;38223;50.940;4.034;2023-03-03T14:12:37;7.40;99.90
52267;DHT22;38223;50.940;4.034;2023-03-03T14:15:23;7.40;99.90
52267;DHT22;38223;50.940;4.034;2023-03-03T14:18:14;7.30;99.90
52267;DHT22;38223;50.940;4.034;2023-03-03T14:20:46;7.20;99.90
52267;DHT22;38223;50.940;4.034;2023-03-03T14:23:18;7.20;99.90
52267;DHT22;38223;50.940;4.034;2023-03-03T14:25:58;7.30;99.90
52267;DHT22;38223;50.940;4.034;2023-03-03T14:28:42;7.30;99.90
52267;DHT22;38223;50.940;4.034;2023-03-03T14:31:45;7.30;99.90
52267;DHT22;38223;50.940;4.034;2023-03-03T14:34:33;7.30;99.90
52267;DHT22;38223;50.940;4.034;2023-03-03T14:42:45;7.50;99.90
52267;DHT22;38223;50.940;4.034;2023-03-03T14:45:33;7.50;99.90
52267;DHT22;38223;50.940;4.034;2023-03-03T14:47:59;7.40;99.90
52267;DHT22;38223;50.940;4.034;2023-03-03T14:50:57;7.50;99.90
52267;DHT22;38223;50.940;4.034;2023-03-03T14:53:44;7.50;99.90
52267;DHT22;38223;50.940;4.034;2023-03-03T14:56:27;7.60;99.90
52267;DHT22;38223;50.940;4.034;2023-03-03T14:59:19;7.60;99.90
52267;DHT22;38223;50.940;4.034;2023-03-03T15:05:15;7.60;99.90
52267;DHT22;38223;50.940;4.034;2023-03-03T15:07:47;7.60;99.90
52267;DHT22;38223;50.940;4.034;2023-03-03T15:10:35;7.80;99.90
52267;DHT22;38223;50.940;4.034;2023-03-03T15:18:30;7.70;99.90
52267;DHT22;38223;50.940;4.034;2023-03-03T15:21:09;7.60;99.90
52267;DHT22;38223;50.940;4.034;2023-03-03T15:23:55;7.60;99.90
52267;DHT22;38223;50.940;4.034;2023-03-03T15:29:37;7.70;99.90
52267;DHT22;38223;50.940;4.034;2023-03-03T15:32:19;7.70;99.90
52267;DHT22;38223;50.940;4.034;2023-03-03T15:34:53;7.70;99.90
52267;DHT22;38223;50.940;4.034;2023-03-03T15:40:16;7.70;99.90
52267;DHT22;38223;50.940;4.034;2023-03-03T15:42:49;7.70;99.90
52267;DHT22;38223;50.940;4.034;2023-03-03T15:45:27;7.80;99.90
52267;DHT22;38223;50.940;4.034;2023-03-03T15:48:22;7.90;99.90
52267;DHT22;38223;50.940;4.034;2023-03-03T15:56:58;7.80;99.90
52267;DHT22;38223;50.940;4.034;2023-03-03T15:59:41;7.80;99.90
52267;DHT22;38223;50.940;4.034;2023-03-03T16:02:20;7.80;99.90
52267;DHT22;38223;50.940;4.034;2023-03-03T16:07:32;7.80;99.90
52267;DHT22;38223;50.940;4.034;2023-03-03T16:10:11;7.70;99.90
52267;DHT22;38223;50.940;4.034;2023-03-03T16:15:34;7.60;99.90
52267;DHT22;38223;50.940;4.034;2023-03-03T16:18:28;7.70;99.90
52267;DHT22;38223;50.940;4.034;2023-03-03T16:23:58;7.60;99.90
52267;DHT22;38223;50.940;4.034;2023-03-03T16:32:08;7.50;99.90
52267;DHT22;38223;50.940;4.034;2023-03-03T16:34:39;7.50;99.90
52267;DHT22;38223;50.940;4.034;2023-03-03T16:42:39;7.50;99.90
52267;DHT22;38223;50.940;4.034;2023-03-03T16:45:32;7.60;99.90
52267;DHT22;38223;50.940;4.034;2023-03-03T16:48:08;7.60;99.90
52267;DHT22;38223;50.940;4.034;2023-03-03T16:50:43;7.80;99.90
52267;DHT22;38223;50.940;4.034;2023-03-03T16:53:17;8.20;99.90
52267;DHT22;38223;50.940;4.034;2023-03-03T17:04:33;8.90;99.90
52267;DHT22;38223;50.940;4.034;2023-03-03T17:07:11;9.00;99.90
52267;DHT22;38223;50.940;4.034;2023-03-03T17:09:56;8.80;99.90
52267;DHT22;38223;50.940;4.034;2023-03-03T17:20:45;8.90;99.90
52267;DHT22;38223;50.940;4.034;2023-03-03T17:31:47;8.80;99.90
52267;DHT22;38223;50.940;4.034;2023-03-03T17:34:23;8.80;99.90
52267;DHT22;38223;50.940;4.034;2023-03-03T17:37:20;8.80;99.90
52267;DHT22;38223;50.940;4.034;2023-03-03T17:42:56;8.60;99.90
52267;DHT22;38223;50.940;4.034;2023-03-03T17:45:26;8.60;99.90
52267;DHT22;38223;50.940;4.034;2023-03-03T17:48:21;8.40;99.90
52267;DHT22;38223;50.940;4.034;2023-03-03T18:02:05;8.50;99.90
52267;DHT22;38223;50.940;4.034;2023-03-03T18:04:49;8.60;99.90
52267;DHT22;38223;50.940;4.034;2023-03-03T18:07:26;8.60;99.90
52267;DHT22;38223;50.940;4.034;2023-03-03T18:15:15;8.50;99.90
52267;DHT22;38223;50.940;4.034;2023-03-03T18:28:52;8.40;99.90
52267;DHT22;38223;50.940;4.034;2023-03-03T18:31:23;8.40;99.90
52267;DHT22;38223;50.940;4.034;2023-03-03T18:34:00;8.50;99.90
52267;DHT22;38223;50.940;4.034;2023-03-03T18:39:00;8.10;99.90
52267;DHT22;38223;50.940;4.034;2023-03-03T18:41:33;8.00;99.90
52267;DHT22;38223;50.940;4.034;2023-03-03T18:44:22;8.10;99.90
52267;DHT22;38223;50.940;4.034;2023-03-03T18:49:11;8.10;99.90
52267;DHT22;38223;50.940;4.034;2023-03-03T19:02:28;7.80;99.90
52267;DHT22;38223;50.940;4.034;2023-03-03T19:15:54;7.50;99.90
52267;DHT22;38223;50.940;4.034;2023-03-03T19:21:32;7.60;99.90
52267;DHT22;38223;50.940;4.034;2023-03-03T19:29:23;7.70;99.90
52267;DHT22;38223;50.940;4.034;2023-03-03T19:46:07;7.50;99.90
52267;DHT22;38223;50.940;4.034;2023-03-03T19:48:47;7.20;99.90
52267;DHT22;38223;50.940;4.034;2023-03-03T19:51:46;7.10;99.90
52267;DHT22;38223;50.940;4.034;2023-03-03T19:57:45;7.10;99.90
52267;DHT22;38223;50.940;4.034;2023-03-03T20:00:29;7.00;99.90
52267;DHT22;38223;50.940;4.034;2023-03-03T20:06:07;7.50;99.90
52267;DHT22;38223;50.940;4.034;2023-03-03T20:14:34;7.40;99.90
52267;DHT22;38223;50.940;4.034;2023-03-03T20:20:04;7.30;99.90
52267;DHT22;38223;50.940;4.034;2023-03-03T20:22:54;7.20;99.90
52267;DHT22;38223;50.940;4.034;2023-03-03T20:36:50;7.50;99.90
52267;DHT22;38223;50.940;4.034;2023-03-03T20:52:58;7.70;99.90
52267;DHT22;38223;50.940;4.034;2023-03-03T21:01:08;7.30;99.90
52267;DHT22;38223;50.940;4.034;2023-03-03T21:03:38;7.20;99.90
52267;DHT22;38223;50.940;4.034;2023-03-03T21:06:13;7.20;99.90
52267;DHT22;38223;50.940;4.034;2023-03-03T21:11:18;7.20;99.90
52267;DHT22;38223;50.940;4.034;2023-03-03T21:13:52;7.20;99.90
52267;DHT22;38223;50.940;4.034;2023-03-03T21:19:02;7.20;99.90
52267;DHT22;38223;50.940;4.034;2023-03-03T21:21:38;7.10;99.90
52267;DHT22;38223;50.940;4.034;2023-03-03T21:24:11;7.20;99.90
52267;DHT22;38223;50.940;4.034;2023-03-03T21:26:53;7.10;99.90
52267;DHT22;38223;50.940;4.034;2023-03-03T21:29:35;7.00;99.90
52267;DHT22;38223;50.940;4.034;2023-03-03T21:32:07;7.00;99.90
52267;DHT22;38223;50.940;4.034;2023-03-03T21:34:37;7.00;99.90
52267;DHT22;38223;50.940;4.034;2023-03-03T21:37:14;7.00;99.90
52267;DHT22;38223;50.940;4.034;2023-03-03T21:39:42;7.00;99.90
52267;DHT22;38223;50.940;4.034;2023-03-03T21:42:14;7.00;99.90
52267;DHT22;38223;50.940;4.034;2023-03-03T21:44:46;7.00;99.90
52267;DHT22;38223;50.940;4.034;2023-03-03T21:47:26;7.20;99.90
52267;DHT22;38223;50.940;4.034;2023-03-03T21:49:49;7.00;99.90
52267;DHT22;38223;50.940;4.034;2023-03-03T21:52:19;6.70;99.90
52267;DHT22;38223;50.940;4.034;2023-03-03T21:54:49;6.70;99.90
52267;DHT22;38223;50.940;4.034;2023-03-03T21:57:19;6.60;99.90
52267;DHT22;38223;50.940;4.034;2023-03-03T21:59:53;6.50;99.90
52267;DHT22;38223;50.940;4.034;2023-03-03T22:02:20;6.60;99.90
52267;DHT22;38223;50.940;4.034;2023-03-03T22:04:48;6.60;99.90
52267;DHT22;38223;50.940;4.034;2023-03-03T22:07:15;6.80;99.90
52267;DHT22;38223;50.940;4.034;2023-03-03T22:09:43;6.90;99.90
52267;DHT22;38223;50.940;4.034;2023-03-03T22:12:11;7.00;99.90
52267;DHT22;38223;50.940;4.034;2023-03-03T22:14:38;7.20;99.90
52267;DHT22;38223;50.940;4.034;2023-03-03T22:17:07;7.30;99.90